x

West Santa Barbara 38 Nm West Of Santa Barbara, Ca (46054) Wave Buoy

10:50 - Wed 18th Jan 2017 All times are PST. -8 hours from GMT.

  • Sig Wave height 6.6ft
  • Swell Direction
  • Peak Period 15s
  • Average Period 10s
  • Wind
    16mph, 20mph gusts
  • Sea Temp 58°f
  • Luft Temp 56°f
  • Sea Pressure 1020.5mb
  • West Santa Barbara  38 Nm West Of Santa Barbara, Ca
  • West Santa Barbara  38 Nm West Of Santa Barbara, Ca

More Historic Weather Station data

Upgrade to MSW Pro to gain access to the past 30 days of data for over 8000 Wavebouys and Weather Stations around the globe.

Join Pro

Comparision Forecast

View Surf forecast
   
Mi 01/18 10:50 6.5ft 15s 10s 16 20 mph 1020.5mb 58f 56f
9:50 5.5ft 15s 11s 16 18 mph 1020.8mb 58f 56f
8:50 6ft 15s 11s 11 13 mph 1021.2mb 58f 56f
7:50 6ft 15s 11s 9 11 mph 1021.3mb 58f 56f
6:50 6ft 15s 11s 7 9 mph 1021.1mb 58f 55f
5:50 5ft 15s 10s 7 9 mph 1021.1mb 58f 55f
4:50 5.5ft 14s 11s 7 9 mph 1020.2mb 58f 55f
3:50 5ft 15s 10s 7 9 mph 1020.1mb 58f 55f
2:50 5.5ft 16s 11s 4 7 mph 1020.2mb 58f 55f
1:50 5.5ft 16s 10s 4 7 mph 1020.6mb 58f 55f
12:50 5ft 15s 10s 7 9 mph 1020.6mb 58f 55f
Di 01/17 11:50 5ft 14s 10s 4 7 mph 1020.6mb 58f 55f
10:50 5ft 12s 9s 4 7 mph 1021.1mb 58f 56f
9:50 5ft 13s 9s 4 7 mph 1021.1mb 58f 56f
8:50 5ft 12s 10s 7 11 mph 1021.1mb 58f 56f
7:50 5ft 14s 10s 9 11 mph 1020.7mb 58f 56f
6:50 5ft 14s 10s 9 11 mph 1020.2mb 58f 56f
4:50 5ft 15s 10s 2 4 mph 1019.8mb 58f 57f
3:50 5ft 14s 10s 2 4 mph 1019mb 59f 58f
2:50 5.5ft 13s 10s 2
mph
1018.9mb 59f 58f
1:50 5ft 15s 10s  -  2 mph 1019.1mb 58f 57f
12:50 5.5ft 15s 10s 7 9 mph 1020.2mb 58f 57f
11:50 6ft 14s 10s 2 4 mph 1019.6mb 58f 57f
10:50 6ft 14s 10s 9 11 mph 1019.1mb 58f 57f
9:50 5.5ft 13s 9s  -  2 mph 1019.8mb 58f 58f
8:50 5.5ft 15s 9s  -  2 mph 1019.2mb 57f 57f
7:50 7ft 14s 10s 2 4 mph 1018.9mb 57f 56f
6:50 6ft 15s 10s 2 4 mph 1018.7mb 57f 56f
5:50 6ft 15s 9s 4 7 mph 1018.5mb 57f 56f
4:50 6.5ft 13s 10s 9
mph
1018mb 57f 56f
3:50 8ft 15s 11s 9 11 mph 1018.1mb 57f 56f
2:50 7ft 15s 10s 7 9 mph 1018.2mb 57f 56f
1:50 6.5ft 15s 10s 7 9 mph 1018.1mb 57f 56f
12:50 6.5ft 14s 9s 4 7 mph 1017.8mb 57f 56f
Mo 01/16 11:50 7ft 15s 10s 11 13 mph 1018.1mb 57f 56f
10:50 8ft 15s 11s 11 16 mph 1018.5mb 57f 56f
9:50 8ft 15s 11s 13 18 mph 1018.5mb 57f 56f
8:50 6ft 16s 10s 9 11 mph 1017.8mb 57f 56f
7:50 6.5ft 15s 10s 7 9 mph 1017.6mb 57f 56f
6:50 7ft 15s 10s 9 11 mph 1017.7mb 57f 56f
5:50 7ft 16s 10s 9 11 mph 1017.7mb 58f 56f
4:50 7ft 16s 11s 9 11 mph 1017.8mb 57f 56f
3:50 6ft 16s 10s 9
mph
1017.9mb 57f 56f
2:50 6.5ft 16s 10s 9 11 mph 1017.8mb 57f 55f
1:50 7.5ft 16s 11s 11 13 mph 1017.8mb 57f 55f
12:50 8ft 16s 11s 11 13 mph 1018.5mb 57f 55f
11:50 8ft 17s 10s 9 13 mph 1019.2mb 57f 55f
10:50 7ft 16s 10s 9 11 mph 1019.6mb 57f 55f
9:50 6.5ft 16s 9s 7 9 mph 1019.8mb 57f 56f
8:50 7ft 17s 9s  -  2 mph 1019.3mb 57f 56f
7:50 6ft 17s 8s 7 9 mph 1018.6mb 57f 55f
6:50 7ft 17s 9s 7 9 mph 1018.5mb 57f 55f
5:50 7ft 17s 9s 11 13 mph 1017.8mb 57f 55f
4:50 6ft 17s 8s 7 9 mph 1017.4mb 57f 56f
3:50 6.5ft 17s 9s 7 9 mph 1017.1mb 57f 56f
2:50 7ft 17s 9s 7 9 mph 1017.5mb 57f 56f
1:50 5.5ft 17s 8s 11 13 mph 1018mb 57f 55f
12:50 5ft 19s 8s 11 13 mph 1018mb 57f 55f
So 01/15 11:50 6ft 19s 8s 9 11 mph 1018.6mb 57f 56f
10:50 6.5ft 19s 8s 11 13 mph 1018.7mb 57f 56f
9:50 6ft 19s 7s 11 13 mph 1018.5mb 57f 56f
8:50 6ft 19s 7s 11 13 mph 1018.2mb 57f 56f
7:50 6ft 19s 6s 13 16 mph 1018.1mb 57f 56f
6:50 6ft 19s 6s 18 20 mph 1018mb 57f 55f
5:50 6.5ft 19s 7s 18 20 mph 1017.5mb 57f 55f
4:50 6.5ft 19s 6s 18 22 mph 1016.9mb 57f 55f
3:50 6.5ft 19s 6s 18 22 mph 1016.6mb 57f 55f
2:50 6.5ft 8s 6s 20 25 mph 1016.5mb 57f 54f
1:50 7ft 19s 6s 20 25 mph 1016.4mb 57f 54f
12:50 6ft 8s 6s 25 27 mph 1017mb 57f 54f
11:50 6ft 8s 6s 20 25 mph 1018mb 57f 55f
10:50 6.5ft 21s 7s 16 20 mph 1018.6mb 57f 55f
9:50 6.5ft 21s 6s 16 18 mph 1018.2mb 57f 54f
8:50 6.5ft 8s 6s 20 25 mph 1017.4mb 57f 54f
7:50 7ft 8s 6s 25 27 mph 1016.7mb 57f 54f
6:50 7ft 8s 6s 25 29 mph 1016.5mb 57f 54f
5:50 7ft 8s 6s 25 31 mph 1016.5mb 57f 55f
4:50 7ft 8s 6s 27 29 mph 1016.5mb 57f 55f
3:50 7.5ft 8s 6s 25 29 mph 1016.3mb 57f 55f
2:50 7.5ft 7s 6s 25 29 mph 1016.3mb 57f 56f
1:50 7ft 7s 6s 22 29 mph 1016.2mb 57f 56f
12:50 7ft 7s 6s 25 29 mph 1016.3mb 57f 55f
Sa 01/14 11:50 7.5ft 7s 6s 27 31 mph 1016.6mb 57f 55f
10:50 7ft 7s 6s 25 29 mph 1016.9mb 57f 56f
9:50 7.5ft 7s 6s 25 31 mph 1016.9mb 57f 56f
8:50 7ft 8s 6s 25 29 mph 1017.1mb 57f 56f